Flight Track Log - Related Links

Times and Time Zones

All times are in EDT time to prevent confusion due to time zone crossing. See the EJA922 flight status page for this flight to view local times or setup timezone preferences in your user account.

Time Position Orientation Groundspeed Altitude Reporting Facility
EDT Latitude Longitude Course Direction KTS MPH feet Rate Location/Type
Thu 12:37:16 PM 36.5786 -121.7972 81° East 204 235 2,900  Level Oakland Center
Thu 12:38:18 PM 36.5889 -121.7203 81° East 227 261 5,400 2,739 Climbing Oakland Center
Thu 12:38:48 PM 36.5500 -121.6833 143° Southeast 281 323 7,100 2,878 Climbing Northern Cal TRACON
Thu 12:40:21 PM 36.4408 -121.5931 146° Southeast 299 344 11,300 2,555 Climbing Oakland Center
Thu 12:41:23 PM 36.3583 -121.5200 144° Southeast 356 410 13,700 2,146 Climbing Oakland Center
Thu 12:42:24 PM 36.2636 -121.4644 155° Southeast 371 427 15,700 1,951 Climbing Oakland Center
Thu 12:43:26 PM 36.1567 -121.4172 160° South 399 459 17,700 1,756 Climbing Oakland Center
Thu 12:44:27 PM 36.0631 -121.3347 145° Southeast 415 478 19,300 1,659 Climbing Oakland Center
Thu 12:45:29 PM 35.9908 -121.2178 127° Southeast 427 491 21,100 1,500 Climbing Oakland Center
Thu 12:46:31 PM 35.9144 -121.1025 129° Southeast 432 497 22,400 1,463 Climbing Oakland Center
Thu 12:47:32 PM 35.8197 -120.9575 129° Southeast 450 518 24,100 1,268 Climbing Oakland Center
Thu 12:48:34 PM 35.7389 -120.8333 129° Southeast 461 531 25,000 439 Climbing Oakland Center
Thu 12:49:35 PM 35.6525 -120.7022 129° Southeast 487 560 25,000  Level Oakland Center
Thu 12:50:37 PM 35.5639 -120.5683 129° Southeast 500 575 25,000  Level Oakland Center
Thu 12:51:39 PM 35.4717 -120.4297 129° Southeast 499 574 25,000  Level Oakland Center
Thu 12:52:40 PM 35.3833 -120.2956 129° Southeast 501 577 25,000  Level Oakland Center
Thu 12:53:42 PM 35.2939 -120.1625 129° Southeast 495 570 25,000  Level Oakland Center
Thu 12:54:43 PM 35.2094 -120.0383 130° Southeast 480 552 25,000  Level Oakland Center
Thu 12:55:45 PM 35.1244 -119.9125 130° Southeast 479 551 25,000  Level Oakland Center
Thu 12:56:47 PM 35.0306 -119.7978 135° Southeast 476 548 25,000  Level Oakland Center
Thu 12:57:48 PM 34.9283 -119.6914 140° Southeast 480 552 25,000  Level Oakland Center
Thu 12:58:50 PM 34.8264 -119.5853 139° Southeast 482 555 25,000  Level Oakland Center
Thu 12:59:51 PM 34.7053 -119.4575 139° Southeast 481 554 25,000  Level Oakland Center
Thu 01:00:53 PM 34.6022 -119.3544 141° Southeast 481 554 25,000 -157 Level Oakland Center
Thu 01:02:24 PM 34.4647 -119.2064 138° Southeast 480 552 24,600 -824 Descending Los Angeles Center
Thu 01:03:26 PM 34.3433 -119.0783 139° Southeast 484 557 22,900 -1,645 Descending Los Angeles Center
Thu 01:04:28 PM 34.2425 -118.9736 139° Southeast 479 551 21,200 -1,984 Descending Los Angeles Center
Thu 01:05:30 PM 34.1425 -118.8711 140° Southeast 474 545 18,800 -2,323 Descending Los Angeles Center
Thu 01:06:32 PM 34.0375 -118.7694 141° Southeast 441 507 16,400 -2,226 Descending Los Angeles Center
Thu 01:07:34 PM 33.9247 -118.7219 161° South 427 491 14,200 -1,143 Descending Los Angeles Center
Thu 01:08:38 PM 33.8025 -118.6792 164° South 419 482 14,000 -336 Descending Los Angeles Center
Thu 01:09:39 PM 33.7044 -118.6436 163° South 359 413 13,500 -976 Descending Los Angeles Center
Thu 01:10:41 PM 33.6133 -118.6094 163° South 346 398 12,000 -1,597 Descending Los Angeles Center
Thu 01:11:43 PM 33.5528 -118.5325 133° Southeast 325 374 10,200 -1,548 Descending Los Angeles Center
Thu 01:12:45 PM 33.4975 -118.4600 132° Southeast 308 354 8,800 -1,548 Descending Los Angeles Center
Thu 01:13:47 PM 33.5114 -118.3597 81° East 293 337 7,000 -1,597 Descending Los Angeles Center
Thu 01:14:49 PM 33.5444 -118.2792 64° Northeast 280 322 5,500 -642 Descending Los Angeles Center
Thu 01:16:54 PM 33.6125 -118.1183 63° Northeast 275 316 5,000 -160 Descending Los Angeles Center
Thu 01:17:56 PM 33.6519 -118.0256 63° Northeast 267 307 5,000  Level Los Angeles Center
Thu 01:18:58 PM 33.6989 -117.9686 45° Northeast 252 290 5,000 -153 Level Los Angeles Center
Thu 01:19:54 PM 33.7500 -117.9167 40° Northeast 222 255 4,700 -879 Descending Southern California TRACON
Thu 01:20:54 PM 33.8000 -117.8833 29° Northeast 201 231 3,300 -1,200 Descending Southern California TRACON
Thu 01:21:54 PM 33.7833 -117.8333 112° Southeast 188 216 2,300 -850 Descending Southern California TRACON
Thu 01:22:54 PM 33.7500 -117.8167 157° South 158 182 1,600 -750 Descending Southern California TRACON
Thu 01:23:54 PM 33.7167 -117.8500 220° Southwest 139 160 800 -800 Descending Southern California TRACON

Login

Don't have an account? Register now (free) for customized features, flight alerts, and more!